Dimokritos Airport


Codes: LGAL/AXD
Name: Dimokritos Airport
City: Alexandroupolis
Country: Greece
Elevation: 24 ft.
Wikipedia:

Photos at Dimokritos Airport


   Photos courtesy of SpottingLog. You can add your own sightings and photos by signing up for a free trial today.



No photos found.

Weather at Dimokritos Airport


Time (UTC)DescriptionTempratureWindCloud coverageVisibilityPressureHumidity
21-Jun-2024 12:00Few Clouds34°C22 mph, NE20%10000m1015hPa33%
21-Jun-2024 15:00Scattered Clouds33°C22 mph, NE35%10000m1013hPa35%
21-Jun-2024 18:00Few Clouds27°C18 mph, E22%10000m1013hPa48%
21-Jun-2024 21:00Scattered Clouds22°C18 mph, NE46%10000m1014hPa74%
22-Jun-2024 00:00Broken Clouds21°C16 mph, NE55%10000m1014hPa83%
22-Jun-2024 03:00Clear Sky20°C11 mph, NE1%10000m1013hPa77%
22-Jun-2024 06:00Clear Sky25°C16 mph, NE3%10000m1013hPa47%
22-Jun-2024 09:00Clear Sky30°C16 mph, NE6%10000m1011hPa28%
22-Jun-2024 12:00Clear Sky33°C13 mph, NE6%10000m1009hPa22%
22-Jun-2024 15:00Clear Sky32°C7 mph, NE0%10000m1007hPa29%
22-Jun-2024 18:00Clear Sky26°C11 mph, NE0%10000m1008hPa38%
22-Jun-2024 21:00Clear Sky22°C13 mph, NE0%10000m1010hPa57%
23-Jun-2024 00:00Clear Sky20°C16 mph, NE0%10000m1009hPa68%
23-Jun-2024 03:00Clear Sky20°C13 mph, NE0%10000m1009hPa65%
23-Jun-2024 06:00Clear Sky25°C16 mph, NE0%10000m1009hPa45%
23-Jun-2024 09:00Clear Sky31°C16 mph, NE0%10000m1008hPa29%
23-Jun-2024 12:00Clear Sky34°C13 mph, NE0%10000m1006hPa24%
23-Jun-2024 15:00Clear Sky33°C7 mph, E0%10000m1006hPa34%
23-Jun-2024 18:00Clear Sky27°C16 mph, NE0%10000m1008hPa39%
23-Jun-2024 21:00Clear Sky22°C16 mph, NE4%10000m1010hPa59%
24-Jun-2024 00:00Clear Sky21°C11 mph, NE4%10000m1009hPa61%
24-Jun-2024 03:00Clear Sky20°C11 mph, NE0%10000m1009hPa60%
24-Jun-2024 06:00Clear Sky27°C13 mph, NE0%10000m1010hPa40%
24-Jun-2024 09:00Clear Sky32°C16 mph, NE0%10000m1009hPa29%
24-Jun-2024 12:00Clear Sky34°C7 mph, NE0%10000m1008hPa29%
24-Jun-2024 15:00Clear Sky31°C7 mph, S0%10000m1007hPa42%
24-Jun-2024 18:00Clear Sky26°C2 mph, N0%10000m1009hPa54%
24-Jun-2024 21:00Scattered Clouds24°C11 mph, NE32%10000m1010hPa52%
25-Jun-2024 00:00Few Clouds23°C9 mph, NE23%10000m1010hPa56%
25-Jun-2024 03:00Scattered Clouds22°C9 mph, NE44%10000m1010hPa59%
25-Jun-2024 06:00Scattered Clouds28°C13 mph, NE26%10000m1011hPa42%
25-Jun-2024 09:00Clear Sky32°C13 mph, NE5%10000m1010hPa36%
25-Jun-2024 12:00Clear Sky32°C2 mph, SW3%10000m1009hPa40%
25-Jun-2024 15:00Clear Sky30°C9 mph, SW0%10000m1009hPa50%
25-Jun-2024 18:00Clear Sky26°C7 mph, S0%10000m1010hPa63%
25-Jun-2024 21:00Clear Sky24°C7 mph, NE0%10000m1011hPa66%
26-Jun-2024 00:00Clear Sky23°C9 mph, NE0%10000m1010hPa69%
26-Jun-2024 03:00Clear Sky22°C11 mph, NE0%10000m1010hPa76%
26-Jun-2024 06:00Clear Sky27°C13 mph, NE0%10000m1011hPa61%
26-Jun-2024 09:00Clear Sky32°C7 mph, E0%10000m1009hPa44%